createdAt,value
2024-04-12T00:02:05.919Z,7.60
2024-04-12T00:04:36.456Z,8.20
2024-04-12T00:07:14.961Z,7.60
2024-04-12T00:09:44.581Z,7.60
2024-04-12T00:12:13.344Z,7.40
2024-04-12T00:14:45.223Z,6.20
2024-04-12T00:19:47.041Z,6.30
2024-04-12T00:22:15.594Z,6.60
2024-04-12T00:24:43.907Z,5.90
2024-04-12T00:27:16.447Z,7.10
2024-04-12T00:29:47.307Z,7.80
2024-04-12T00:32:17.510Z,7.50
2024-04-12T00:34:52.732Z,7.50
2024-04-12T00:37:22.191Z,8.20
2024-04-12T00:39:51.769Z,7.70
2024-04-12T00:42:27.920Z,7.20
2024-04-12T00:44:59.197Z,6.30
2024-04-12T00:47:33.544Z,6.20
2024-04-12T00:50:05.522Z,6.00
2024-04-12T00:52:36.839Z,5.90
2024-04-12T00:55:10.610Z,6.50
2024-04-12T00:57:42.436Z,7.70
2024-04-12T01:00:20.685Z,7.60
2024-04-12T01:02:50.613Z,7.80
2024-04-12T01:05:20.705Z,7.40
2024-04-12T01:07:56.833Z,7.60
2024-04-12T01:10:27.334Z,7.20
2024-04-12T01:12:59.278Z,6.70
2024-04-12T01:15:39.019Z,6.80
2024-04-12T01:18:16.550Z,6.50
2024-04-12T01:20:46.707Z,6.50
2024-04-12T01:23:18.543Z,6.90
2024-04-12T01:28:17.188Z,6.60
2024-04-12T01:30:47.503Z,6.80
2024-04-12T01:33:16.116Z,6.90
2024-04-12T01:35:45.944Z,7.20
2024-04-12T01:38:21.302Z,8.00
2024-04-12T01:41:00.349Z,7.40
2024-04-12T01:43:32.307Z,7.80
2024-04-12T01:46:00.269Z,8.00
2024-04-12T01:48:30.373Z,6.80
2024-04-12T01:50:58.627Z,6.80
2024-04-12T01:53:28.215Z,7.70
2024-04-12T01:55:56.244Z,6.20
2024-04-12T01:58:24.720Z,6.90
2024-04-12T02:00:53.232Z,7.00
2024-04-12T02:03:22.747Z,6.40
2024-04-12T02:05:51.330Z,6.40
2024-04-12T02:08:20.077Z,7.80
2024-04-12T02:10:50.061Z,7.70
2024-04-12T02:13:20.261Z,8.00
2024-04-12T02:15:50.639Z,8.10
2024-04-12T02:18:23.297Z,7.20
2024-04-12T02:20:54.292Z,8.00
2024-04-12T02:23:24.295Z,7.70
2024-04-12T02:25:52.475Z,7.10
2024-04-12T02:28:20.689Z,6.60
2024-04-12T02:30:58.216Z,6.80
2024-04-12T02:33:34.080Z,6.40
2024-04-12T02:36:17.896Z,6.80
2024-04-12T02:38:53.042Z,6.80
2024-04-12T02:41:21.419Z,6.70
2024-04-12T02:43:53.231Z,6.80
2024-04-12T02:46:23.338Z,6.40
2024-04-12T02:48:52.226Z,7.00
2024-04-12T02:51:23.040Z,6.80
2024-04-12T02:53:52.431Z,6.50
2024-04-12T02:56:25.156Z,7.00
2024-04-12T02:58:55.167Z,7.50
2024-04-12T03:01:25.343Z,8.00
2024-04-12T03:03:57.603Z,8.70
2024-04-12T03:06:29.088Z,8.80
2024-04-12T03:09:07.051Z,7.70
2024-04-12T03:11:36.195Z,8.80
2024-04-12T03:14:10.243Z,8.90
2024-04-12T03:16:43.633Z,7.80
2024-04-12T03:19:15.260Z,7.50
2024-04-12T03:21:43.474Z,7.70
2024-04-12T03:24:12.453Z,7.60
2024-04-12T03:26:44.334Z,7.20
2024-04-12T03:29:13.506Z,7.20
2024-04-12T03:31:41.728Z,8.30
2024-04-12T03:34:10.173Z,6.90
2024-04-12T03:36:40.139Z,7.60
2024-04-12T03:39:19.566Z,6.80
2024-04-12T03:42:07.591Z,7.30
2024-04-12T03:44:38.113Z,6.60
2024-04-12T03:47:12.912Z,6.60
2024-04-12T03:49:44.433Z,6.60
2024-04-12T03:52:15.453Z,6.90
2024-04-12T03:54:47.346Z,8.60
2024-04-12T03:57:17.141Z,8.30
2024-04-12T03:59:46.630Z,8.10
2024-04-12T04:02:17.323Z,8.10
2024-04-12T04:04:47.538Z,8.50
2024-04-12T04:07:18.721Z,7.90
2024-04-12T04:09:48.632Z,8.10
2024-04-12T04:12:17.917Z,7.70
2024-04-12T04:14:51.604Z,7.60
2024-04-12T04:17:30.330Z,7.10
2024-04-12T04:19:59.112Z,7.00
2024-04-12T04:22:30.250Z,7.70
2024-04-12T04:24:58.217Z,6.90
2024-04-12T04:27:26.312Z,6.40
2024-04-12T04:29:57.906Z,7.00
2024-04-12T04:32:28.043Z,7.00
2024-04-12T04:35:10.669Z,6.80
2024-04-12T04:37:40.492Z,6.10
2024-04-12T04:40:13.220Z,7.00
2024-04-12T04:42:44.305Z,6.70
2024-04-12T04:45:19.023Z,7.40
2024-04-12T04:47:47.529Z,7.70
2024-04-12T04:50:21.010Z,8.70
2024-04-12T04:52:51.419Z,8.40
2024-04-12T04:55:20.453Z,8.90
2024-04-12T04:57:55.948Z,7.50
2024-04-12T05:00:25.908Z,8.50
2024-04-12T05:02:55.604Z,7.70
2024-04-12T05:05:27.105Z,7.90
2024-04-12T05:07:57.361Z,8.90
2024-04-12T05:10:26.892Z,9.20
2024-04-12T05:12:55.909Z,8.40
2024-04-12T05:15:42.714Z,7.90
2024-04-12T05:18:14.707Z,7.40
2024-04-12T05:20:44.585Z,6.40
2024-04-12T05:23:14.457Z,6.50
2024-04-12T05:25:52.932Z,6.70
2024-04-12T05:28:21.576Z,7.00
2024-04-12T05:30:51.306Z,7.60
2024-04-12T05:33:21.039Z,7.50
2024-04-12T05:35:50.217Z,7.20
2024-04-12T05:38:22.947Z,7.00
2024-04-12T05:40:55.504Z,7.80
2024-04-12T05:45:54.574Z,7.70
2024-04-12T05:48:24.373Z,7.40
2024-04-12T05:50:55.733Z,7.00
2024-04-12T05:53:26.110Z,7.90
2024-04-12T05:56:13.982Z,7.40
2024-04-12T05:58:42.530Z,7.50
2024-04-12T06:01:12.221Z,7.30
2024-04-12T06:03:56.188Z,6.90
2024-04-12T06:06:26.049Z,7.50
2024-04-12T06:08:55.132Z,7.00
2024-04-12T06:11:26.309Z,7.90
2024-04-12T06:13:56.371Z,7.20
2024-04-12T06:16:25.620Z,7.40
2024-04-12T06:18:54.312Z,6.70
2024-04-12T06:21:23.587Z,7.20
2024-04-12T06:23:56.315Z,6.40
2024-04-12T06:26:24.748Z,7.10
2024-04-12T06:28:58.212Z,7.00
2024-04-12T06:31:35.477Z,6.00
2024-04-12T06:34:13.565Z,7.60
2024-04-12T06:36:46.672Z,7.70
2024-04-12T06:39:16.828Z,5.90
2024-04-12T06:41:46.786Z,6.20
2024-04-12T06:44:20.837Z,6.60
2024-04-12T06:46:53.175Z,6.40
2024-04-12T06:49:28.309Z,5.50
2024-04-12T06:52:21.465Z,5.70
2024-04-12T06:54:49.767Z,6.00
2024-04-12T06:57:20.049Z,5.40
2024-04-12T06:59:49.221Z,5.30
2024-04-12T07:02:24.834Z,5.60
2024-04-12T07:04:57.937Z,5.50
2024-04-12T07:07:29.229Z,5.50
2024-04-12T07:10:00.964Z,5.20
2024-04-12T07:15:01.632Z,5.50
2024-04-12T07:17:30.016Z,4.80
2024-04-12T07:20:01.576Z,5.90
2024-04-12T07:25:00.645Z,5.40
2024-04-12T07:27:29.609Z,4.70
2024-04-12T07:29:59.255Z,5.00
2024-04-12T07:32:37.070Z,5.20
2024-04-12T07:35:23.766Z,5.50
2024-04-12T07:37:58.486Z,5.10
2024-04-12T07:40:33.328Z,5.30
2024-04-12T07:43:09.558Z,5.00
2024-04-12T07:45:40.283Z,5.30
2024-04-12T07:48:22.152Z,4.90
2024-04-12T07:51:00.997Z,5.00
2024-04-12T07:53:35.643Z,5.20
2024-04-12T07:56:11.010Z,4.80
2024-04-12T07:58:41.896Z,5.00
2024-04-12T08:01:18.010Z,5.20
2024-04-12T08:04:06.577Z,4.60
2024-04-12T08:06:39.098Z,4.70
2024-04-12T08:09:22.201Z,4.30
2024-04-12T08:11:53.220Z,4.80
2024-04-12T08:16:55.104Z,4.20
2024-04-12T08:19:23.924Z,4.90
2024-04-12T08:21:56.355Z,5.60
2024-04-12T08:24:24.862Z,5.30
2024-04-12T08:26:54.214Z,4.70
2024-04-12T08:29:27.811Z,4.80
2024-04-12T08:32:12.447Z,4.90
2024-04-12T08:34:44.037Z,4.80
2024-04-12T08:37:17.727Z,4.80
2024-04-12T08:39:54.718Z,5.30
2024-04-12T08:42:30.419Z,5.70
2024-04-12T08:45:00.577Z,5.70
2024-04-12T08:47:32.287Z,4.40
2024-04-12T08:50:05.034Z,5.20
2024-04-12T08:52:49.969Z,5.00
2024-04-12T08:55:22.036Z,5.20
2024-04-12T08:57:57.790Z,4.90
2024-04-12T09:00:35.601Z,4.40
2024-04-12T09:03:12.740Z,4.20
2024-04-12T09:05:43.916Z,3.80
2024-04-12T09:08:18.594Z,3.80
2024-04-12T09:10:47.350Z,4.00
2024-04-12T09:13:16.694Z,4.00
2024-04-12T09:15:47.382Z,4.10
2024-04-12T09:18:17.335Z,5.20
2024-04-12T09:20:53.480Z,4.10
2024-04-12T09:23:34.685Z,4.60
2024-04-12T09:26:27.215Z,3.80
2024-04-12T09:29:10.830Z,3.70
2024-04-12T09:31:59.182Z,4.20
2024-04-12T09:34:36.733Z,4.20
2024-04-12T09:37:27.553Z,3.90
2024-04-12T09:40:01.044Z,3.80
2024-04-12T09:42:47.535Z,3.90
2024-04-12T09:45:20.877Z,3.90
2024-04-12T09:48:09.156Z,4.00
2024-04-12T09:50:56.337Z,3.90
2024-04-12T09:53:43.629Z,4.30
2024-04-12T09:56:34.417Z,4.10
2024-04-12T09:59:29.765Z,5.60
2024-04-12T10:02:16.388Z,3.90
2024-04-12T10:05:08.548Z,4.00
2024-04-12T10:07:57.977Z,4.40
2024-04-12T10:10:48.939Z,4.70
2024-04-12T10:13:36.434Z,4.20
2024-04-12T10:16:23.443Z,4.10
2024-04-12T10:19:19.315Z,4.20
2024-04-12T10:22:06.089Z,4.40
2024-04-12T10:24:52.942Z,4.20
2024-04-12T10:27:39.659Z,3.80
2024-04-12T10:30:29.635Z,4.20
2024-04-12T10:33:20.720Z,3.90
2024-04-12T10:36:08.852Z,4.90
2024-04-12T10:38:46.361Z,4.40
2024-04-12T10:41:16.748Z,3.90
2024-04-12T10:43:44.684Z,4.30
2024-04-12T10:46:13.427Z,3.60
2024-04-12T10:48:45.190Z,4.00
2024-04-12T10:51:16.286Z,4.20
2024-04-12T10:53:44.816Z,4.00
2024-04-12T10:56:19.912Z,3.70
2024-04-12T10:58:53.543Z,4.50
2024-04-12T11:01:24.175Z,3.90
2024-04-12T11:04:00.405Z,3.60
2024-04-12T11:06:33.757Z,3.40
2024-04-12T11:09:06.488Z,3.60
2024-04-12T11:11:39.985Z,4.10
2024-04-12T11:14:16.978Z,4.10
2024-04-12T11:17:07.955Z,4.00
2024-04-12T11:19:56.902Z,3.80
2024-04-12T11:22:47.604Z,3.50
2024-04-12T11:25:34.280Z,3.50
2024-04-12T11:28:24.763Z,3.80
2024-04-12T11:31:16.273Z,3.70
2024-04-12T11:34:01.060Z,3.40
2024-04-12T11:36:40.837Z,3.50
2024-04-12T11:39:20.033Z,3.60
2024-04-12T11:41:49.077Z,3.60
2024-04-12T11:44:19.831Z,3.50
2024-04-12T11:46:49.938Z,3.80
2024-04-12T11:49:28.356Z,3.40
2024-04-12T11:51:58.365Z,3.30
2024-04-12T11:54:31.109Z,3.60
2024-04-12T11:57:06.727Z,3.80
2024-04-12T11:59:35.831Z,3.40
2024-04-12T12:02:06.237Z,3.60
2024-04-12T12:04:34.903Z,3.50
2024-04-12T12:07:06.957Z,4.10
2024-04-12T12:09:39.261Z,3.60
2024-04-12T12:12:12.733Z,3.60
2024-04-12T12:14:45.249Z,3.80
2024-04-12T12:17:19.654Z,3.70
2024-04-12T12:19:53.068Z,3.80
2024-04-12T12:22:22.846Z,4.00
2024-04-12T12:24:52.271Z,3.60
2024-04-12T12:27:21.509Z,3.90
2024-04-12T12:29:52.545Z,4.60
2024-04-12T12:32:27.105Z,3.60
2024-04-12T12:34:55.951Z,3.50
2024-04-12T12:37:25.608Z,3.40
2024-04-12T12:39:53.661Z,3.80
2024-04-12T12:42:22.742Z,3.70
2024-04-12T12:44:50.831Z,4.00
2024-04-12T12:47:21.830Z,3.60
2024-04-12T12:49:54.292Z,3.50
2024-04-12T12:52:23.560Z,4.10
2024-04-12T12:54:51.672Z,3.60
2024-04-12T12:57:19.859Z,4.10
2024-04-12T12:59:47.901Z,3.80
2024-04-12T13:02:16.936Z,3.50
2024-04-12T13:04:47.967Z,3.40
2024-04-12T13:07:18.629Z,3.20
2024-04-12T13:09:54.721Z,3.10
2024-04-12T13:12:29.551Z,3.50
2024-04-12T13:14:59.242Z,4.10
2024-04-12T13:17:27.708Z,3.70
2024-04-12T13:19:58.013Z,3.50
2024-04-12T13:22:25.892Z,3.40
2024-04-12T13:24:54.303Z,3.10
2024-04-12T13:27:24.823Z,3.40
2024-04-12T13:29:53.255Z,3.50
2024-04-12T13:32:21.361Z,3.40
2024-04-12T13:34:49.526Z,3.40
2024-04-12T13:37:21.846Z,3.20
2024-04-12T13:39:50.199Z,3.30
2024-04-12T13:42:21.641Z,3.40
2024-04-12T13:45:08.686Z,2.90
2024-04-12T13:47:55.858Z,3.20
2024-04-12T13:50:42.660Z,3.00
2024-04-12T13:53:10.653Z,2.80
2024-04-12T13:55:40.295Z,2.90
2024-04-12T13:58:08.495Z,3.30
2024-04-12T14:00:37.791Z,2.80
2024-04-12T14:03:16.302Z,2.90
2024-04-12T14:05:47.362Z,3.00
2024-04-12T14:08:21.929Z,2.80
2024-04-12T14:10:49.954Z,2.90
2024-04-12T14:13:18.261Z,2.90
2024-04-12T14:15:50.336Z,3.10
2024-04-12T14:18:18.654Z,3.20
2024-04-12T14:20:46.658Z,3.00
2024-04-12T14:23:14.565Z,2.70
2024-04-12T14:25:42.473Z,2.60
2024-04-12T14:28:11.905Z,2.70
2024-04-12T14:30:39.933Z,2.60
2024-04-12T14:33:08.668Z,2.70
2024-04-12T14:35:42.700Z,3.50
2024-04-12T14:38:10.901Z,2.80
2024-04-12T14:40:38.812Z,3.10
2024-04-12T14:43:06.866Z,2.70
2024-04-12T14:45:36.260Z,2.70
2024-04-12T14:48:09.595Z,2.90
2024-04-12T14:50:43.426Z,2.90
2024-04-12T14:53:11.525Z,2.70
2024-04-12T14:55:39.998Z,2.90
2024-04-12T14:58:08.677Z,2.90
2024-04-12T15:00:36.811Z,3.40
2024-04-12T15:03:24.072Z,3.30
2024-04-12T15:06:11.977Z,4.00
2024-04-12T15:08:59.731Z,3.30
2024-04-12T15:11:46.589Z,3.00
2024-04-12T15:14:37.487Z,3.10
2024-04-12T15:17:26.255Z,2.90
2024-04-12T15:20:13.044Z,3.50
2024-04-12T15:22:59.886Z,3.40
2024-04-12T15:25:46.658Z,3.30
2024-04-12T15:28:33.390Z,3.50
2024-04-12T15:31:20.235Z,3.40
2024-04-12T15:34:07.224Z,3.30
2024-04-12T15:36:53.845Z,3.00
2024-04-12T15:39:40.526Z,3.70
2024-04-12T15:42:27.267Z,3.50
2024-04-12T15:45:14.036Z,3.40
2024-04-12T15:47:42.093Z,3.60
2024-04-12T15:50:13.472Z,3.30
2024-04-12T15:55:21.808Z,3.20
2024-04-12T15:58:08.446Z,3.70
2024-04-12T16:00:55.300Z,3.60
2024-04-12T16:03:42.166Z,3.70
2024-04-12T16:06:29.034Z,3.60
2024-04-12T16:09:15.858Z,3.70
2024-04-12T16:11:44.058Z,3.40
2024-04-12T16:14:12.050Z,3.30
2024-04-12T16:16:40.113Z,4.50
2024-04-12T16:19:07.994Z,3.60
2024-04-12T16:21:36.171Z,3.40
2024-04-12T16:24:04.409Z,3.40
2024-04-12T16:26:32.520Z,3.80
2024-04-12T16:29:00.366Z,4.00
2024-04-12T16:31:28.489Z,4.30
2024-04-12T16:33:57.363Z,3.50
2024-04-12T16:36:26.339Z,3.80
2024-04-12T16:38:54.702Z,3.50
2024-04-12T16:41:23.872Z,3.70
2024-04-12T16:43:51.861Z,3.30
2024-04-12T16:46:20.095Z,3.50
2024-04-12T16:48:48.050Z,3.70
2024-04-12T16:51:19.654Z,3.60
2024-04-12T16:56:15.738Z,3.90
2024-04-12T16:58:43.572Z,3.70
2024-04-12T17:01:11.820Z,3.40
2024-04-12T17:03:40.282Z,3.60
2024-04-12T17:06:08.457Z,3.80
2024-04-12T17:08:36.421Z,4.00
2024-04-12T17:11:04.719Z,4.30
2024-04-12T17:13:33.931Z,3.60
2024-04-12T17:16:04.949Z,3.40
2024-04-12T17:18:34.489Z,4.40
2024-04-12T17:21:05.693Z,3.40
2024-04-12T17:23:33.991Z,3.30
2024-04-12T17:26:05.050Z,3.80
2024-04-12T17:28:33.062Z,4.50
2024-04-12T17:31:01.799Z,4.00
2024-04-12T17:33:31.212Z,4.40
2024-04-12T17:35:59.377Z,4.60
2024-04-12T17:38:27.366Z,3.90
2024-04-12T17:40:55.394Z,3.60
2024-04-12T17:43:23.343Z,4.00
2024-04-12T17:45:51.250Z,3.90
2024-04-12T17:48:19.649Z,4.30
2024-04-12T17:50:59.699Z,4.00
2024-04-12T17:53:36.256Z,3.80
2024-04-12T17:56:07.689Z,3.70
2024-04-12T17:58:36.615Z,3.30
2024-04-12T18:01:06.467Z,4.30
2024-04-12T18:03:34.672Z,3.50
2024-04-12T18:06:02.975Z,3.50
2024-04-12T18:08:31.036Z,4.00
2024-04-12T18:11:04.208Z,3.60
2024-04-12T18:13:32.658Z,4.40
2024-04-12T18:16:02.701Z,3.90
2024-04-12T18:18:30.687Z,4.60
2024-04-12T18:21:05.144Z,4.30
2024-04-12T18:23:33.114Z,4.10
2024-04-12T18:26:01.339Z,4.60
2024-04-12T18:28:29.634Z,4.10
2024-04-12T18:30:57.745Z,4.20
2024-04-12T18:33:26.206Z,4.50
2024-04-12T18:35:55.361Z,5.10
2024-04-12T18:38:42.022Z,5.10
2024-04-12T18:41:28.772Z,5.00
2024-04-12T18:44:15.594Z,4.80
2024-04-12T18:46:43.464Z,5.90
2024-04-12T18:49:11.599Z,5.30
2024-04-12T18:51:39.607Z,5.50
2024-04-12T18:54:07.543Z,5.40
2024-04-12T18:56:37.347Z,4.90
2024-04-12T18:59:06.501Z,5.20
2024-04-12T19:01:35.190Z,5.00
2024-04-12T19:04:03.492Z,5.10
2024-04-12T19:06:33.106Z,5.10
2024-04-12T19:09:01.205Z,4.80
2024-04-12T19:11:30.610Z,4.30
2024-04-12T19:14:00.395Z,5.00
2024-04-12T19:16:28.320Z,5.00
2024-04-12T19:18:56.463Z,4.60
2024-04-12T19:21:26.175Z,5.00
2024-04-12T19:23:55.648Z,4.90
2024-04-12T19:26:23.664Z,5.70
2024-04-12T19:28:52.143Z,4.30
2024-04-12T19:31:20.042Z,5.70
2024-04-12T19:33:49.562Z,5.60
2024-04-12T19:36:17.780Z,5.00
2024-04-12T19:38:45.688Z,4.70
2024-04-12T19:41:15.840Z,4.60
2024-04-12T19:43:46.680Z,5.00
2024-04-12T19:46:16.163Z,5.00
2024-04-12T19:48:44.577Z,4.70
2024-04-12T19:51:12.889Z,5.10
2024-04-12T19:53:40.967Z,5.10
2024-04-12T19:56:09.267Z,5.10
2024-04-12T19:58:38.561Z,4.60
2024-04-12T20:01:11.059Z,5.20
2024-04-12T20:03:39.664Z,5.00
2024-04-12T20:06:07.992Z,4.90
2024-04-12T20:08:36.553Z,5.20
2024-04-12T20:11:06.346Z,5.20
2024-04-12T20:13:35.977Z,4.80
2024-04-12T20:16:07.115Z,4.90
2024-04-12T20:18:37.432Z,4.80
2024-04-12T20:21:07.591Z,4.50
2024-04-12T20:23:36.281Z,5.20
2024-04-12T20:26:14.118Z,5.70
2024-04-12T20:28:47.810Z,5.30
2024-04-12T20:31:23.580Z,5.10
2024-04-12T20:34:04.690Z,4.40
2024-04-12T20:36:46.571Z,5.60
2024-04-12T20:39:19.072Z,4.80
2024-04-12T20:41:49.649Z,5.20
2024-04-12T20:44:19.681Z,4.70
2024-04-12T20:46:49.385Z,5.40
2024-04-12T20:49:18.362Z,5.00
2024-04-12T20:51:48.500Z,25.70
2024-04-12T20:54:17.086Z,67.50
2024-04-12T20:56:46.019Z,74.10
2024-04-12T20:59:14.259Z,131.60
2024-04-12T21:01:45.957Z,147.60
2024-04-12T21:04:15.608Z,98.50
2024-04-12T21:06:44.789Z,95.60
2024-04-12T21:09:17.161Z,29.60
2024-04-12T21:11:46.067Z,12.10
2024-04-12T21:14:14.816Z,36.70
2024-04-12T21:16:44.391Z,30.10
2024-04-12T21:19:13.741Z,11.00
2024-04-12T21:21:41.680Z,8.00
2024-04-12T21:24:11.060Z,8.10
2024-04-12T21:26:39.204Z,5.00
2024-04-12T21:29:07.204Z,5.60
2024-04-12T21:31:35.114Z,4.60
2024-04-12T21:34:03.074Z,3.90
2024-04-12T21:36:30.979Z,4.60
2024-04-12T21:38:59.768Z,4.50
2024-04-12T21:41:27.985Z,4.40
2024-04-12T21:43:56.012Z,4.80
2024-04-12T21:46:25.478Z,5.60
2024-04-12T21:48:54.649Z,5.70
2024-04-12T21:51:31.908Z,5.60
2024-04-12T21:54:01.390Z,5.70
2024-04-12T21:56:29.509Z,4.90
2024-04-12T21:58:59.823Z,5.50
2024-04-12T22:01:28.432Z,6.10
2024-04-12T22:03:56.455Z,5.40
2024-04-12T22:06:24.485Z,6.60
2024-04-12T22:08:55.252Z,5.40
2024-04-12T22:11:24.914Z,5.50
2024-04-12T22:13:53.036Z,5.70
2024-04-12T22:16:20.962Z,5.30
2024-04-12T22:18:48.977Z,4.70
2024-04-12T22:21:17.972Z,4.80
2024-04-12T22:23:49.189Z,5.20
2024-04-12T22:26:19.224Z,5.20
2024-04-12T22:28:48.219Z,5.10
2024-04-12T22:31:19.483Z,4.70
2024-04-12T22:33:50.504Z,4.60
2024-04-12T22:36:22.275Z,5.10
2024-04-12T22:38:51.219Z,4.80
2024-04-12T22:41:20.283Z,3.70
2024-04-12T22:43:49.569Z,4.20
2024-04-12T22:46:17.517Z,4.00
2024-04-12T22:48:46.130Z,3.80
2024-04-12T22:51:26.304Z,3.80
2024-04-12T22:53:54.552Z,4.10
2024-04-12T22:56:25.334Z,3.30
2024-04-12T22:58:57.746Z,3.90
2024-04-12T23:01:29.308Z,4.20
2024-04-12T23:04:00.663Z,4.20
2024-04-12T23:06:28.809Z,3.90
2024-04-12T23:08:56.854Z,3.70
2024-04-12T23:11:24.936Z,3.60
2024-04-12T23:13:53.586Z,3.10
2024-04-12T23:16:21.632Z,4.10
2024-04-12T23:18:53.462Z,3.50
2024-04-12T23:21:21.889Z,4.20
2024-04-12T23:23:49.737Z,3.80
2024-04-12T23:26:17.593Z,3.70
2024-04-12T23:28:45.542Z,4.00
2024-04-12T23:31:13.654Z,3.60
2024-04-12T23:33:41.715Z,3.70
2024-04-12T23:36:09.687Z,4.30
2024-04-12T23:38:37.596Z,4.10
2024-04-12T23:41:05.411Z,3.30
2024-04-12T23:43:33.340Z,3.80
2024-04-12T23:46:01.162Z,4.00
2024-04-12T23:48:29.595Z,4.40
2024-04-12T23:50:57.806Z,4.10
2024-04-12T23:53:26.351Z,4.70
2024-04-12T23:55:54.259Z,4.40
2024-04-12T23:58:22.222Z,4.20
